Main page
METAR-TAF:

METAR-TAF

Airports :

Burgos Airport

Burgos, Spain

latitude: 42-22N, longitude: 003-38W, elevation: 894 m

Current weather observation

The report was made 19 minutes ago, at 02:30 UTC
Wind 2 kt from variable directions
Temperature 0°C
Humidity 80%
Pressure 1028 hPa
Visibility 10 km or more
no clouds below 1500 m and no cumulonimbus

METAR: LEBG 210230Z AUTO VRB02KT CAVOK M00/M03 Q1028

Time: 03:49 (02:49 UTC)

Forecast

The report was made 6 hours and 49 minutes ago, at 20:00 UTC
Forecast valid from 20 at 21 UTC to 21 at 21 UTC
Wind 3 kt from variable directions
Visibility 10 km or more
no clouds below 1500 m and no cumulonimbus
Becoming
from 21 at 09 UTC to 21 at 11 UTC
Wind 12 kt from the Southwest

TAF: LEBG 202000Z 2021/2121 VRB03KT CAVOK TX14/2115Z TN01/2106Z BECMG 2109/2111 22012KT

Weather observations and forecasts of more than 4000 airports (METAR and TAF reports).

The available stations are represented by yellow and red dots on the map.

Hover mouse over dot to see the name of the station.

Then click to see weather observations and forecasts.

To change the map : click on the green buttons with a black cross to zoom in, on the green button with a dash to zoom out, or on the green arrows for adjacent maps.


METAR-TAF: